sensor_id;sensor_type;location;lat;lon;timestamp;P1;durP1;ratioP1;P2;durP2;ratioP2
12567;SDS011;6349;50.904;6.136;2024-02-26T00:01:31;2.07;;;1.30;;
12567;SDS011;6349;50.904;6.136;2024-02-26T00:03:33;3.07;;;0.93;;
12567;SDS011;6349;50.904;6.136;2024-02-26T00:05:35;1.73;;;1.10;;
12567;SDS011;6349;50.904;6.136;2024-02-26T00:07:38;2.43;;;0.97;;
12567;SDS011;6349;50.904;6.136;2024-02-26T00:09:39;1.23;;;1.00;;
12567;SDS011;6349;50.904;6.136;2024-02-26T00:11:39;1.20;;;0.90;;
12567;SDS011;6349;50.904;6.136;2024-02-26T00:13:40;1.10;;;1.00;;
12567;SDS011;6349;50.904;6.136;2024-02-26T00:15:40;1.27;;;1.10;;
12567;SDS011;6349;50.904;6.136;2024-02-26T00:17:41;1.47;;;0.83;;
12567;SDS011;6349;50.904;6.136;2024-02-26T00:19:42;0.83;;;0.80;;
12567;SDS011;6349;50.904;6.136;2024-02-26T00:21:42;1.40;;;1.13;;
12567;SDS011;6349;50.904;6.136;2024-02-26T00:23:43;0.80;;;0.80;;
12567;SDS011;6349;50.904;6.136;2024-02-26T00:25:43;1.70;;;0.90;;
12567;SDS011;6349;50.904;6.136;2024-02-26T00:27:44;1.20;;;1.03;;
12567;SDS011;6349;50.904;6.136;2024-02-26T00:29:44;1.20;;;0.90;;
12567;SDS011;6349;50.904;6.136;2024-02-26T00:31:45;1.00;;;0.80;;
12567;SDS011;6349;50.904;6.136;2024-02-26T00:33:46;1.00;;;0.90;;
12567;SDS011;6349;50.904;6.136;2024-02-26T00:35:46;1.03;;;0.80;;
12567;SDS011;6349;50.904;6.136;2024-02-26T00:37:47;1.67;;;0.90;;
12567;SDS011;6349;50.904;6.136;2024-02-26T00:39:48;1.30;;;0.90;;
12567;SDS011;6349;50.904;6.136;2024-02-26T00:41:49;1.27;;;1.00;;
12567;SDS011;6349;50.904;6.136;2024-02-26T00:43:51;0.90;;;0.80;;
12567;SDS011;6349;50.904;6.136;2024-02-26T00:45:52;0.80;;;0.80;;
12567;SDS011;6349;50.904;6.136;2024-02-26T00:47:52;1.87;;;1.07;;
12567;SDS011;6349;50.904;6.136;2024-02-26T00:49:53;1.00;;;0.90;;
12567;SDS011;6349;50.904;6.136;2024-02-26T00:51:54;1.10;;;1.00;;
12567;SDS011;6349;50.904;6.136;2024-02-26T00:53:55;1.67;;;0.97;;
12567;SDS011;6349;50.904;6.136;2024-02-26T00:55:56;0.63;;;0.63;;
12567;SDS011;6349;50.904;6.136;2024-02-26T00:57:59;1.70;;;0.90;;
12567;SDS011;6349;50.904;6.136;2024-02-26T00:59:59;1.00;;;0.90;;
12567;SDS011;6349;50.904;6.136;2024-02-26T01:02:00;0.80;;;0.63;;
12567;SDS011;6349;50.904;6.136;2024-02-26T01:04:02;1.37;;;0.90;;
12567;SDS011;6349;50.904;6.136;2024-02-26T01:06:03;1.20;;;0.90;;
12567;SDS011;6349;50.904;6.136;2024-02-26T01:08:04;1.67;;;0.90;;
12567;SDS011;6349;50.904;6.136;2024-02-26T01:10:05;1.30;;;1.10;;
12567;SDS011;6349;50.904;6.136;2024-02-26T01:12:06;0.70;;;0.70;;
12567;SDS011;6349;50.904;6.136;2024-02-26T01:14:07;0.97;;;0.73;;
12567;SDS011;6349;50.904;6.136;2024-02-26T01:16:08;1.33;;;0.90;;
12567;SDS011;6349;50.904;6.136;2024-02-26T01:18:08;0.87;;;0.80;;
12567;SDS011;6349;50.904;6.136;2024-02-26T01:20:09;3.20;;;0.90;;
12567;SDS011;6349;50.904;6.136;2024-02-26T01:22:10;1.40;;;0.97;;
12567;SDS011;6349;50.904;6.136;2024-02-26T01:24:11;0.77;;;0.77;;
12567;SDS011;6349;50.904;6.136;2024-02-26T01:26:11;1.33;;;0.90;;
12567;SDS011;6349;50.904;6.136;2024-02-26T01:28:12;1.00;;;0.90;;
12567;SDS011;6349;50.904;6.136;2024-02-26T01:30:13;1.10;;;1.00;;
12567;SDS011;6349;50.904;6.136;2024-02-26T01:32:16;1.10;;;0.93;;
12567;SDS011;6349;50.904;6.136;2024-02-26T01:34:16;1.47;;;0.97;;
12567;SDS011;6349;50.904;6.136;2024-02-26T01:36:18;0.77;;;0.73;;
12567;SDS011;6349;50.904;6.136;2024-02-26T01:38:18;1.30;;;0.73;;
12567;SDS011;6349;50.904;6.136;2024-02-26T01:40:19;1.20;;;0.70;;
12567;SDS011;6349;50.904;6.136;2024-02-26T01:42:20;0.80;;;0.80;;
12567;SDS011;6349;50.904;6.136;2024-02-26T01:44:21;1.10;;;0.90;;
12567;SDS011;6349;50.904;6.136;2024-02-26T01:46:21;1.63;;;0.80;;
12567;SDS011;6349;50.904;6.136;2024-02-26T01:48:22;1.23;;;0.97;;
12567;SDS011;6349;50.904;6.136;2024-02-26T01:50:23;1.20;;;0.70;;
12567;SDS011;6349;50.904;6.136;2024-02-26T01:52:24;1.00;;;0.80;;
12567;SDS011;6349;50.904;6.136;2024-02-26T01:54:25;1.43;;;0.77;;
12567;SDS011;6349;50.904;6.136;2024-02-26T01:56:25;1.77;;;0.90;;
12567;SDS011;6349;50.904;6.136;2024-02-26T01:58:30;2.47;;;0.77;;
12567;SDS011;6349;50.904;6.136;2024-02-26T02:00:31;1.93;;;1.00;;
12567;SDS011;6349;50.904;6.136;2024-02-26T02:02:32;2.30;;;0.83;;
12567;SDS011;6349;50.904;6.136;2024-02-26T02:04:33;1.03;;;0.87;;
12567;SDS011;6349;50.904;6.136;2024-02-26T02:06:34;0.80;;;0.77;;
12567;SDS011;6349;50.904;6.136;2024-02-26T02:08:36;0.80;;;0.80;;
12567;SDS011;6349;50.904;6.136;2024-02-26T02:10:38;2.10;;;0.90;;
12567;SDS011;6349;50.904;6.136;2024-02-26T02:12:39;1.37;;;0.80;;
12567;SDS011;6349;50.904;6.136;2024-02-26T02:14:40;0.90;;;0.73;;
12567;SDS011;6349;50.904;6.136;2024-02-26T02:16:41;2.07;;;0.80;;
12567;SDS011;6349;50.904;6.136;2024-02-26T02:18:42;1.43;;;0.70;;
12567;SDS011;6349;50.904;6.136;2024-02-26T02:20:42;1.37;;;1.00;;
12567;SDS011;6349;50.904;6.136;2024-02-26T02:22:46;0.70;;;0.60;;
12567;SDS011;6349;50.904;6.136;2024-02-26T02:24:47;0.90;;;0.70;;
12567;SDS011;6349;50.904;6.136;2024-02-26T02:26:48;1.57;;;0.63;;
12567;SDS011;6349;50.904;6.136;2024-02-26T02:28:49;1.90;;;1.00;;
12567;SDS011;6349;50.904;6.136;2024-02-26T02:30:49;0.87;;;0.70;;
12567;SDS011;6349;50.904;6.136;2024-02-26T02:32:50;0.97;;;0.83;;
12567;SDS011;6349;50.904;6.136;2024-02-26T02:34:51;2.00;;;0.80;;
12567;SDS011;6349;50.904;6.136;2024-02-26T02:36:52;1.80;;;1.10;;
12567;SDS011;6349;50.904;6.136;2024-02-26T02:38:53;1.10;;;0.80;;
12567;SDS011;6349;50.904;6.136;2024-02-26T02:40:54;0.80;;;0.80;;
12567;SDS011;6349;50.904;6.136;2024-02-26T02:42:55;1.33;;;0.70;;
12567;SDS011;6349;50.904;6.136;2024-02-26T02:44:55;0.90;;;0.60;;
12567;SDS011;6349;50.904;6.136;2024-02-26T02:46:56;0.73;;;0.60;;
12567;SDS011;6349;50.904;6.136;2024-02-26T02:48:56;0.97;;;0.80;;
12567;SDS011;6349;50.904;6.136;2024-02-26T02:50:57;1.03;;;0.80;;
12567;SDS011;6349;50.904;6.136;2024-02-26T02:52:57;0.83;;;0.67;;
12567;SDS011;6349;50.904;6.136;2024-02-26T02:54:58;1.00;;;0.70;;
12567;SDS011;6349;50.904;6.136;2024-02-26T02:56:59;1.30;;;0.90;;
12567;SDS011;6349;50.904;6.136;2024-02-26T02:58:59;1.97;;;0.80;;
12567;SDS011;6349;50.904;6.136;2024-02-26T03:01:00;1.80;;;0.80;;
12567;SDS011;6349;50.904;6.136;2024-02-26T03:03:01;1.20;;;0.90;;
12567;SDS011;6349;50.904;6.136;2024-02-26T03:05:02;1.10;;;0.80;;
12567;SDS011;6349;50.904;6.136;2024-02-26T03:07:03;0.80;;;0.80;;
12567;SDS011;6349;50.904;6.136;2024-02-26T03:09:04;1.53;;;0.80;;
12567;SDS011;6349;50.904;6.136;2024-02-26T03:11:05;0.83;;;0.67;;
12567;SDS011;6349;50.904;6.136;2024-02-26T03:13:05;1.83;;;0.80;;
12567;SDS011;6349;50.904;6.136;2024-02-26T03:15:06;0.63;;;0.63;;
12567;SDS011;6349;50.904;6.136;2024-02-26T03:17:07;1.53;;;0.70;;
12567;SDS011;6349;50.904;6.136;2024-02-26T03:19:08;1.23;;;0.90;;
12567;SDS011;6349;50.904;6.136;2024-02-26T03:21:08;1.23;;;0.70;;
12567;SDS011;6349;50.904;6.136;2024-02-26T03:23:09;1.00;;;0.80;;
12567;SDS011;6349;50.904;6.136;2024-02-26T03:25:12;0.83;;;0.70;;
12567;SDS011;6349;50.904;6.136;2024-02-26T03:27:13;1.33;;;0.90;;
12567;SDS011;6349;50.904;6.136;2024-02-26T03:29:14;0.83;;;0.63;;
12567;SDS011;6349;50.904;6.136;2024-02-26T03:31:15;0.60;;;0.50;;
12567;SDS011;6349;50.904;6.136;2024-02-26T03:33:15;0.87;;;0.63;;
12567;SDS011;6349;50.904;6.136;2024-02-26T03:35:16;0.70;;;0.70;;
12567;SDS011;6349;50.904;6.136;2024-02-26T03:37:16;0.97;;;0.70;;
12567;SDS011;6349;50.904;6.136;2024-02-26T03:39:17;1.03;;;0.70;;
12567;SDS011;6349;50.904;6.136;2024-02-26T03:41:17;0.93;;;0.80;;
12567;SDS011;6349;50.904;6.136;2024-02-26T03:43:18;0.80;;;0.80;;
12567;SDS011;6349;50.904;6.136;2024-02-26T03:45:19;0.93;;;0.73;;
12567;SDS011;6349;50.904;6.136;2024-02-26T03:47:19;1.10;;;0.70;;
12567;SDS011;6349;50.904;6.136;2024-02-26T03:49:20;0.50;;;0.50;;
12567;SDS011;6349;50.904;6.136;2024-02-26T03:51:21;0.60;;;0.60;;
12567;SDS011;6349;50.904;6.136;2024-02-26T03:53:22;0.47;;;0.40;;
12567;SDS011;6349;50.904;6.136;2024-02-26T03:55:22;0.73;;;0.70;;
12567;SDS011;6349;50.904;6.136;2024-02-26T03:57:25;0.60;;;0.50;;
12567;SDS011;6349;50.904;6.136;2024-02-26T03:59:25;0.60;;;0.60;;
12567;SDS011;6349;50.904;6.136;2024-02-26T04:01:26;0.67;;;0.67;;
12567;SDS011;6349;50.904;6.136;2024-02-26T04:03:27;0.97;;;0.57;;
12567;SDS011;6349;50.904;6.136;2024-02-26T04:05:27;0.90;;;0.73;;
12567;SDS011;6349;50.904;6.136;2024-02-26T04:07:28;2.13;;;0.70;;
12567;SDS011;6349;50.904;6.136;2024-02-26T04:09:30;1.00;;;0.70;;
12567;SDS011;6349;50.904;6.136;2024-02-26T04:11:32;0.80;;;0.63;;
12567;SDS011;6349;50.904;6.136;2024-02-26T04:13:33;1.47;;;0.87;;
12567;SDS011;6349;50.904;6.136;2024-02-26T04:15:34;1.20;;;1.10;;
12567;SDS011;6349;50.904;6.136;2024-02-26T04:17:35;1.13;;;0.77;;
12567;SDS011;6349;50.904;6.136;2024-02-26T04:19:36;0.63;;;0.60;;
12567;SDS011;6349;50.904;6.136;2024-02-26T04:21:37;0.97;;;0.87;;
12567;SDS011;6349;50.904;6.136;2024-02-26T04:23:38;1.77;;;0.80;;
12567;SDS011;6349;50.904;6.136;2024-02-26T04:25:38;1.20;;;0.80;;
12567;SDS011;6349;50.904;6.136;2024-02-26T04:27:39;0.67;;;0.67;;
12567;SDS011;6349;50.904;6.136;2024-02-26T04:29:39;1.80;;;0.80;;
12567;SDS011;6349;50.904;6.136;2024-02-26T04:31:40;0.70;;;0.70;;
12567;SDS011;6349;50.904;6.136;2024-02-26T04:33:42;0.97;;;0.80;;
12567;SDS011;6349;50.904;6.136;2024-02-26T04:35:43;0.80;;;0.80;;
12567;SDS011;6349;50.904;6.136;2024-02-26T04:37:44;1.90;;;0.80;;
12567;SDS011;6349;50.904;6.136;2024-02-26T04:39:44;0.60;;;0.60;;
12567;SDS011;6349;50.904;6.136;2024-02-26T04:41:45;1.70;;;0.73;;
12567;SDS011;6349;50.904;6.136;2024-02-26T04:43:46;1.47;;;1.00;;
12567;SDS011;6349;50.904;6.136;2024-02-26T04:45:46;1.67;;;0.77;;
12567;SDS011;6349;50.904;6.136;2024-02-26T04:47:48;0.93;;;0.60;;
12567;SDS011;6349;50.904;6.136;2024-02-26T04:49:51;2.10;;;1.13;;
12567;SDS011;6349;50.904;6.136;2024-02-26T04:51:52;2.10;;;1.07;;
12567;SDS011;6349;50.904;6.136;2024-02-26T04:53:53;0.93;;;0.80;;
12567;SDS011;6349;50.904;6.136;2024-02-26T04:55:53;1.90;;;0.97;;
12567;SDS011;6349;50.904;6.136;2024-02-26T04:57:54;2.43;;;0.90;;
12567;SDS011;6349;50.904;6.136;2024-02-26T04:59:55;0.80;;;0.70;;
12567;SDS011;6349;50.904;6.136;2024-02-26T05:01:55;0.70;;;0.70;;
12567;SDS011;6349;50.904;6.136;2024-02-26T05:03:56;0.90;;;0.70;;
12567;SDS011;6349;50.904;6.136;2024-02-26T05:05:56;1.17;;;0.77;;
12567;SDS011;6349;50.904;6.136;2024-02-26T05:07:58;0.77;;;0.73;;
12567;SDS011;6349;50.904;6.136;2024-02-26T05:09:58;1.03;;;0.77;;
12567;SDS011;6349;50.904;6.136;2024-02-26T05:11:59;1.00;;;0.90;;
12567;SDS011;6349;50.904;6.136;2024-02-26T05:14:00;1.83;;;0.70;;
12567;SDS011;6349;50.904;6.136;2024-02-26T05:16:01;1.50;;;0.73;;
12567;SDS011;6349;50.904;6.136;2024-02-26T05:18:02;1.50;;;0.80;;
12567;SDS011;6349;50.904;6.136;2024-02-26T05:20:03;1.80;;;0.70;;
12567;SDS011;6349;50.904;6.136;2024-02-26T05:22:04;1.70;;;0.67;;
12567;SDS011;6349;50.904;6.136;2024-02-26T05:24:05;0.63;;;0.60;;
12567;SDS011;6349;50.904;6.136;2024-02-26T05:26:06;0.70;;;0.60;;
12567;SDS011;6349;50.904;6.136;2024-02-26T05:28:06;1.90;;;0.67;;
12567;SDS011;6349;50.904;6.136;2024-02-26T05:30:07;0.70;;;0.70;;
12567;SDS011;6349;50.904;6.136;2024-02-26T05:32:08;1.10;;;0.90;;
12567;SDS011;6349;50.904;6.136;2024-02-26T05:34:09;0.67;;;0.67;;
12567;SDS011;6349;50.904;6.136;2024-02-26T05:36:09;1.70;;;0.83;;
12567;SDS011;6349;50.904;6.136;2024-02-26T05:38:10;0.63;;;0.63;;
12567;SDS011;6349;50.904;6.136;2024-02-26T05:40:11;1.27;;;0.60;;
12567;SDS011;6349;50.904;6.136;2024-02-26T05:42:12;0.80;;;0.70;;
12567;SDS011;6349;50.904;6.136;2024-02-26T05:44:12;0.80;;;0.80;;
12567;SDS011;6349;50.904;6.136;2024-02-26T05:46:16;0.87;;;0.63;;
12567;SDS011;6349;50.904;6.136;2024-02-26T05:48:21;0.83;;;0.80;;
12567;SDS011;6349;50.904;6.136;2024-02-26T05:50:22;0.77;;;0.70;;
12567;SDS011;6349;50.904;6.136;2024-02-26T05:52:22;1.60;;;0.70;;
12567;SDS011;6349;50.904;6.136;2024-02-26T05:54:23;0.67;;;0.67;;
12567;SDS011;6349;50.904;6.136;2024-02-26T05:56:24;1.00;;;0.80;;
12567;SDS011;6349;50.904;6.136;2024-02-26T05:58:24;0.83;;;0.80;;
12567;SDS011;6349;50.904;6.136;2024-02-26T06:00:25;1.57;;;0.80;;
12567;SDS011;6349;50.904;6.136;2024-02-26T06:02:26;1.00;;;0.83;;
12567;SDS011;6349;50.904;6.136;2024-02-26T06:04:26;1.00;;;0.80;;
12567;SDS011;6349;50.904;6.136;2024-02-26T06:06:27;1.10;;;1.00;;
12567;SDS011;6349;50.904;6.136;2024-02-26T06:08:27;1.10;;;1.00;;
12567;SDS011;6349;50.904;6.136;2024-02-26T06:10:28;2.20;;;1.10;;
12567;SDS011;6349;50.904;6.136;2024-02-26T06:12:28;1.40;;;1.13;;
12567;SDS011;6349;50.904;6.136;2024-02-26T06:14:30;1.20;;;1.10;;
12567;SDS011;6349;50.904;6.136;2024-02-26T06:16:31;1.30;;;1.20;;
12567;SDS011;6349;50.904;6.136;2024-02-26T06:18:32;1.40;;;1.30;;
12567;SDS011;6349;50.904;6.136;2024-02-26T06:20:32;1.30;;;1.00;;
12567;SDS011;6349;50.904;6.136;2024-02-26T06:22:33;1.43;;;1.03;;
12567;SDS011;6349;50.904;6.136;2024-02-26T06:24:33;1.83;;;1.30;;
12567;SDS011;6349;50.904;6.136;2024-02-26T06:26:34;1.50;;;1.20;;
12567;SDS011;6349;50.904;6.136;2024-02-26T06:28:35;1.20;;;1.10;;
12567;SDS011;6349;50.904;6.136;2024-02-26T06:30:35;0.90;;;0.90;;
12567;SDS011;6349;50.904;6.136;2024-02-26T06:32:36;1.70;;;1.10;;
12567;SDS011;6349;50.904;6.136;2024-02-26T06:34:37;1.20;;;1.10;;
12567;SDS011;6349;50.904;6.136;2024-02-26T06:36:39;3.00;;;1.80;;
12567;SDS011;6349;50.904;6.136;2024-02-26T06:38:39;1.13;;;1.03;;
12567;SDS011;6349;50.904;6.136;2024-02-26T06:40:40;2.20;;;0.93;;
12567;SDS011;6349;50.904;6.136;2024-02-26T06:42:40;1.47;;;1.10;;
12567;SDS011;6349;50.904;6.136;2024-02-26T06:44:43;1.40;;;1.10;;
12567;SDS011;6349;50.904;6.136;2024-02-26T06:46:44;1.00;;;0.90;;
12567;SDS011;6349;50.904;6.136;2024-02-26T06:48:44;1.07;;;1.00;;
12567;SDS011;6349;50.904;6.136;2024-02-26T06:50:45;2.03;;;1.20;;
12567;SDS011;6349;50.904;6.136;2024-02-26T06:52:45;1.17;;;0.90;;
12567;SDS011;6349;50.904;6.136;2024-02-26T06:54:46;1.20;;;1.07;;
12567;SDS011;6349;50.904;6.136;2024-02-26T06:56:48;4.30;;;1.20;;
12567;SDS011;6349;50.904;6.136;2024-02-26T06:58:48;1.73;;;1.20;;
12567;SDS011;6349;50.904;6.136;2024-02-26T07:00:49;1.33;;;1.20;;
12567;SDS011;6349;50.904;6.136;2024-02-26T07:02:50;1.73;;;1.17;;
12567;SDS011;6349;50.904;6.136;2024-02-26T07:04:50;1.20;;;1.10;;
12567;SDS011;6349;50.904;6.136;2024-02-26T07:06:51;2.13;;;1.40;;
12567;SDS011;6349;50.904;6.136;2024-02-26T07:08:51;1.43;;;1.17;;
12567;SDS011;6349;50.904;6.136;2024-02-26T07:10:52;2.23;;;1.43;;
12567;SDS011;6349;50.904;6.136;2024-02-26T07:12:53;3.57;;;1.43;;
12567;SDS011;6349;50.904;6.136;2024-02-26T07:14:53;1.90;;;1.70;;
12567;SDS011;6349;50.904;6.136;2024-02-26T07:16:54;1.97;;;1.73;;
12567;SDS011;6349;50.904;6.136;2024-02-26T07:18:54;1.60;;;1.50;;
12567;SDS011;6349;50.904;6.136;2024-02-26T07:20:55;1.70;;;1.30;;
12567;SDS011;6349;50.904;6.136;2024-02-26T07:22:56;1.50;;;1.40;;
12567;SDS011;6349;50.904;6.136;2024-02-26T07:24:57;1.40;;;1.30;;
12567;SDS011;6349;50.904;6.136;2024-02-26T07:26:57;2.00;;;1.53;;
12567;SDS011;6349;50.904;6.136;2024-02-26T07:28:58;1.60;;;1.50;;
12567;SDS011;6349;50.904;6.136;2024-02-26T07:31:00;2.17;;;1.97;;
12567;SDS011;6349;50.904;6.136;2024-02-26T07:33:00;1.50;;;1.40;;
12567;SDS011;6349;50.904;6.136;2024-02-26T07:35:01;2.00;;;1.80;;
12567;SDS011;6349;50.904;6.136;2024-02-26T07:37:02;3.00;;;2.17;;
12567;SDS011;6349;50.904;6.136;2024-02-26T07:39:03;1.97;;;1.77;;
12567;SDS011;6349;50.904;6.136;2024-02-26T07:41:04;2.60;;;1.77;;
12567;SDS011;6349;50.904;6.136;2024-02-26T07:43:05;3.30;;;3.00;;
12567;SDS011;6349;50.904;6.136;2024-02-26T07:45:06;2.93;;;2.63;;
12567;SDS011;6349;50.904;6.136;2024-02-26T07:47:06;2.60;;;2.40;;
12567;SDS011;6349;50.904;6.136;2024-02-26T07:49:07;2.93;;;2.60;;
12567;SDS011;6349;50.904;6.136;2024-02-26T07:51:08;2.17;;;2.00;;
12567;SDS011;6349;50.904;6.136;2024-02-26T07:53:08;2.27;;;2.00;;
12567;SDS011;6349;50.904;6.136;2024-02-26T07:55:09;2.47;;;2.20;;
12567;SDS011;6349;50.904;6.136;2024-02-26T07:57:10;1.77;;;1.67;;
12567;SDS011;6349;50.904;6.136;2024-02-26T07:59:10;2.70;;;1.80;;
12567;SDS011;6349;50.904;6.136;2024-02-26T08:01:13;1.87;;;1.70;;
12567;SDS011;6349;50.904;6.136;2024-02-26T08:03:14;1.80;;;1.70;;
12567;SDS011;6349;50.904;6.136;2024-02-26T08:05:16;2.10;;;1.90;;
12567;SDS011;6349;50.904;6.136;2024-02-26T08:07:16;1.60;;;1.50;;
12567;SDS011;6349;50.904;6.136;2024-02-26T08:09:17;1.93;;;1.60;;
12567;SDS011;6349;50.904;6.136;2024-02-26T08:11:18;1.93;;;1.77;;
12567;SDS011;6349;50.904;6.136;2024-02-26T08:13:18;3.00;;;1.80;;
12567;SDS011;6349;50.904;6.136;2024-02-26T08:15:19;1.80;;;1.70;;
12567;SDS011;6349;50.904;6.136;2024-02-26T08:17:19;1.80;;;1.70;;
12567;SDS011;6349;50.904;6.136;2024-02-26T08:19:20;1.87;;;1.50;;
12567;SDS011;6349;50.904;6.136;2024-02-26T08:21:21;1.77;;;1.67;;
12567;SDS011;6349;50.904;6.136;2024-02-26T08:23:22;2.37;;;1.60;;
12567;SDS011;6349;50.904;6.136;2024-02-26T08:25:23;1.60;;;1.50;;
12567;SDS011;6349;50.904;6.136;2024-02-26T08:27:24;2.47;;;1.63;;
12567;SDS011;6349;50.904;6.136;2024-02-26T08:29:24;1.70;;;1.60;;
12567;SDS011;6349;50.904;6.136;2024-02-26T08:31:25;2.20;;;1.70;;
12567;SDS011;6349;50.904;6.136;2024-02-26T08:33:27;2.47;;;1.50;;
12567;SDS011;6349;50.904;6.136;2024-02-26T08:35:27;1.70;;;1.50;;
12567;SDS011;6349;50.904;6.136;2024-02-26T08:37:28;2.20;;;1.70;;
12567;SDS011;6349;50.904;6.136;2024-02-26T08:39:29;1.83;;;1.73;;
12567;SDS011;6349;50.904;6.136;2024-02-26T08:41:29;1.80;;;1.70;;
12567;SDS011;6349;50.904;6.136;2024-02-26T08:43:30;2.83;;;1.80;;
12567;SDS011;6349;50.904;6.136;2024-02-26T08:45:31;1.97;;;1.77;;
12567;SDS011;6349;50.904;6.136;2024-02-26T08:47:31;1.80;;;1.70;;
12567;SDS011;6349;50.904;6.136;2024-02-26T08:49:32;1.80;;;1.70;;
12567;SDS011;6349;50.904;6.136;2024-02-26T08:51:33;1.70;;;1.60;;
12567;SDS011;6349;50.904;6.136;2024-02-26T08:53:34;2.07;;;1.60;;
12567;SDS011;6349;50.904;6.136;2024-02-26T08:55:35;2.90;;;1.40;;
12567;SDS011;6349;50.904;6.136;2024-02-26T08:57:36;1.63;;;1.50;;
12567;SDS011;6349;50.904;6.136;2024-02-26T08:59:36;1.80;;;1.70;;
12567;SDS011;6349;50.904;6.136;2024-02-26T09:01:37;1.87;;;1.53;;
12567;SDS011;6349;50.904;6.136;2024-02-26T09:03:37;2.17;;;1.60;;
12567;SDS011;6349;50.904;6.136;2024-02-26T09:05:38;1.90;;;1.70;;
12567;SDS011;6349;50.904;6.136;2024-02-26T09:07:39;1.60;;;1.50;;
12567;SDS011;6349;50.904;6.136;2024-02-26T09:09:39;1.77;;;1.60;;
12567;SDS011;6349;50.904;6.136;2024-02-26T09:11:40;1.90;;;1.57;;
12567;SDS011;6349;50.904;6.136;2024-02-26T09:13:41;2.07;;;1.87;;
12567;SDS011;6349;50.904;6.136;2024-02-26T09:15:42;1.70;;;1.60;;
12567;SDS011;6349;50.904;6.136;2024-02-26T09:17:42;2.27;;;1.80;;
12567;SDS011;6349;50.904;6.136;2024-02-26T09:19:44;2.00;;;1.80;;
12567;SDS011;6349;50.904;6.136;2024-02-26T09:21:45;1.70;;;1.60;;
12567;SDS011;6349;50.904;6.136;2024-02-26T09:23:46;1.80;;;1.70;;
12567;SDS011;6349;50.904;6.136;2024-02-26T09:25:46;2.07;;;1.50;;
12567;SDS011;6349;50.904;6.136;2024-02-26T09:27:47;1.90;;;1.70;;
12567;SDS011;6349;50.904;6.136;2024-02-26T09:29:48;2.03;;;1.60;;
12567;SDS011;6349;50.904;6.136;2024-02-26T09:31:48;1.83;;;1.60;;
12567;SDS011;6349;50.904;6.136;2024-02-26T09:33:49;1.73;;;1.63;;
12567;SDS011;6349;50.904;6.136;2024-02-26T09:35:49;1.50;;;1.40;;
12567;SDS011;6349;50.904;6.136;2024-02-26T09:37:50;1.90;;;1.80;;
12567;SDS011;6349;50.904;6.136;2024-02-26T09:39:51;1.67;;;1.50;;
12567;SDS011;6349;50.904;6.136;2024-02-26T09:41:51;2.43;;;1.50;;
12567;SDS011;6349;50.904;6.136;2024-02-26T09:43:52;1.27;;;1.17;;
12567;SDS011;6349;50.904;6.136;2024-02-26T09:45:56;2.10;;;1.77;;
12567;SDS011;6349;50.904;6.136;2024-02-26T09:47:57;1.60;;;1.50;;
12567;SDS011;6349;50.904;6.136;2024-02-26T09:49:58;1.40;;;1.30;;
12567;SDS011;6349;50.904;6.136;2024-02-26T09:52:03;1.50;;;1.40;;
12567;SDS011;6349;50.904;6.136;2024-02-26T09:54:04;1.93;;;1.50;;
12567;SDS011;6349;50.904;6.136;2024-02-26T09:56:09;1.50;;;1.40;;
12567;SDS011;6349;50.904;6.136;2024-02-26T09:58:11;2.13;;;1.30;;
12567;SDS011;6349;50.904;6.136;2024-02-26T10:00:18;1.57;;;1.30;;
12567;SDS011;6349;50.904;6.136;2024-02-26T10:02:21;1.73;;;1.30;;
12567;SDS011;6349;50.904;6.136;2024-02-26T10:04:22;1.60;;;1.40;;
12567;SDS011;6349;50.904;6.136;2024-02-26T10:06:26;1.60;;;1.40;;
12567;SDS011;6349;50.904;6.136;2024-02-26T10:08:27;1.30;;;1.20;;
12567;SDS011;6349;50.904;6.136;2024-02-26T10:10:29;2.57;;;1.53;;
12567;SDS011;6349;50.904;6.136;2024-02-26T10:12:32;1.20;;;1.10;;
12567;SDS011;6349;50.904;6.136;2024-02-26T10:14:33;1.30;;;1.20;;
12567;SDS011;6349;50.904;6.136;2024-02-26T10:16:33;1.47;;;1.33;;
12567;SDS011;6349;50.904;6.136;2024-02-26T10:18:48;1.87;;;1.13;;
12567;SDS011;6349;50.904;6.136;2024-02-26T10:20:58;1.70;;;1.60;;
12567;SDS011;6349;50.904;6.136;2024-02-26T10:23:03;1.93;;;1.70;;
12567;SDS011;6349;50.904;6.136;2024-02-26T10:25:05;1.97;;;1.77;;
12567;SDS011;6349;50.904;6.136;2024-02-26T10:27:05;1.60;;;1.50;;
12567;SDS011;6349;50.904;6.136;2024-02-26T10:29:06;1.57;;;1.47;;
12567;SDS011;6349;50.904;6.136;2024-02-26T10:31:09;1.50;;;1.40;;
12567;SDS011;6349;50.904;6.136;2024-02-26T10:33:10;1.10;;;1.10;;
12567;SDS011;6349;50.904;6.136;2024-02-26T10:35:11;0.80;;;0.80;;
12567;SDS011;6349;50.904;6.136;2024-02-26T10:37:12;0.67;;;0.67;;
12567;SDS011;6349;50.904;6.136;2024-02-26T10:39:14;3.60;;;3.30;;
12567;SDS011;6349;50.904;6.136;2024-02-26T10:41:14;1.90;;;1.80;;
12567;SDS011;6349;50.904;6.136;2024-02-26T10:43:15;2.00;;;1.80;;
12567;SDS011;6349;50.904;6.136;2024-02-26T10:45:16;1.63;;;1.53;;
12567;SDS011;6349;50.904;6.136;2024-02-26T10:47:17;1.37;;;1.27;;
12567;SDS011;6349;50.904;6.136;2024-02-26T10:49:18;1.27;;;1.17;;
12567;SDS011;6349;50.904;6.136;2024-02-26T10:51:20;2.97;;;2.67;;
12567;SDS011;6349;50.904;6.136;2024-02-26T10:53:28;3.20;;;2.90;;
12567;SDS011;6349;50.904;6.136;2024-02-26T10:55:30;7.73;;;6.87;;
12567;SDS011;6349;50.904;6.136;2024-02-26T10:59:37;7.63;;;6.83;;
12567;SDS011;6349;50.904;6.136;2024-02-26T11:01:39;2.63;;;2.43;;
12567;SDS011;6349;50.904;6.136;2024-02-26T11:03:47;3.33;;;3.03;;
12567;SDS011;6349;50.904;6.136;2024-02-26T11:05:50;5.40;;;4.90;;
12567;SDS011;6349;50.904;6.136;2024-02-26T11:07:51;5.33;;;4.53;;
12567;SDS011;6349;50.904;6.136;2024-02-26T11:09:53;6.60;;;4.90;;
12567;SDS011;6349;50.904;6.136;2024-02-26T11:11:54;15.27;;;10.67;;
12567;SDS011;6349;50.904;6.136;2024-02-26T11:13:57;7.47;;;5.37;;
12567;SDS011;6349;50.904;6.136;2024-02-26T11:16:01;13.37;;;8.90;;
12567;SDS011;6349;50.904;6.136;2024-02-26T11:18:02;11.53;;;8.63;;
12567;SDS011;6349;50.904;6.136;2024-02-26T11:20:04;4.83;;;3.53;;
12567;SDS011;6349;50.904;6.136;2024-02-26T11:22:07;14.37;;;10.00;;
12567;SDS011;6349;50.904;6.136;2024-02-26T11:24:08;11.87;;;8.80;;
12567;SDS011;6349;50.904;6.136;2024-02-26T11:26:15;13.33;;;9.33;;
12567;SDS011;6349;50.904;6.136;2024-02-26T11:28:17;9.67;;;8.00;;
12567;SDS011;6349;50.904;6.136;2024-02-26T11:30:19;18.97;;;16.83;;
12567;SDS011;6349;50.904;6.136;2024-02-26T11:32:21;9.90;;;7.60;;
12567;SDS011;6349;50.904;6.136;2024-02-26T11:34:22;8.80;;;6.70;;
12567;SDS011;6349;50.904;6.136;2024-02-26T11:36:23;5.50;;;4.80;;
12567;SDS011;6349;50.904;6.136;2024-02-26T11:38:26;5.03;;;4.57;;
12567;SDS011;6349;50.904;6.136;2024-02-26T11:40:28;6.70;;;6.10;;
12567;SDS011;6349;50.904;6.136;2024-02-26T11:42:28;5.33;;;4.83;;
12567;SDS011;6349;50.904;6.136;2024-02-26T11:44:30;2.73;;;2.43;;
12567;SDS011;6349;50.904;6.136;2024-02-26T11:46:31;2.63;;;2.30;;
12567;SDS011;6349;50.904;6.136;2024-02-26T11:48:32;3.40;;;3.10;;
12567;SDS011;6349;50.904;6.136;2024-02-26T11:50:34;2.87;;;2.60;;
12567;SDS011;6349;50.904;6.136;2024-02-26T11:52:36;2.40;;;2.17;;
12567;SDS011;6349;50.904;6.136;2024-02-26T11:54:40;3.00;;;2.80;;
12567;SDS011;6349;50.904;6.136;2024-02-26T11:56:47;3.37;;;3.07;;
12567;SDS011;6349;50.904;6.136;2024-02-26T11:58:48;3.27;;;2.97;;
12567;SDS011;6349;50.904;6.136;2024-02-26T12:00:55;3.27;;;2.20;;
12567;SDS011;6349;50.904;6.136;2024-02-26T12:02:58;3.97;;;3.57;;
12567;SDS011;6349;50.904;6.136;2024-02-26T12:05:13;2.93;;;2.50;;
12567;SDS011;6349;50.904;6.136;2024-02-26T12:07:16;2.50;;;2.30;;
12567;SDS011;6349;50.904;6.136;2024-02-26T12:09:35;3.70;;;2.20;;
12567;SDS011;6349;50.904;6.136;2024-02-26T12:11:41;2.17;;;1.90;;
12567;SDS011;6349;50.904;6.136;2024-02-26T12:13:45;2.10;;;1.90;;
12567;SDS011;6349;50.904;6.136;2024-02-26T12:15:56;5.77;;;4.40;;
12567;SDS011;6349;50.904;6.136;2024-02-26T12:17:58;4.07;;;3.67;;
12567;SDS011;6349;50.904;6.136;2024-02-26T12:20:10;2.73;;;2.53;;
12567;SDS011;6349;50.904;6.136;2024-02-26T12:22:13;2.77;;;2.23;;
12567;SDS011;6349;50.904;6.136;2024-02-26T12:24:14;2.40;;;2.20;;